^^
Meteo Knjazevac Station Historical Data
Daily Summary for May 10, 2022 Units:  English    Metric   Both
Daily Weekly Monthly Yearly Custom
  High: Low: Average:
Temperature: 42.6 °F 39.6 °F 41 °F
Dew Point: 42.4 °F 39.3 °F 40.7 °F
Humidity: 99% 99% 99%
Wind Speed: 3.2mph 0mph 1.1mph
Wind Gust: 4mph - -
Wind- - WSW
Pressure: 30.24 in 30.23 in -
Precipitation: 0.00 in    
Historical Graphs
 
 
Tabular Data for May 10, 2022
Time Temperature Dew Point Pressure Wind Wind Speed Wind Gust Humidity Rainfall Rate (Hourly) solar Conditions
00:04 39.7 °F 39.5 °F 30.23 in West 3.2 mph 3 mph 99% 0.00 in 0 W/m2
00:09 39.7 °F 39.5 °F 30.23 in West 1.8 mph 4 mph 99% 0.00 in 0 W/m2
00:14 39.7 °F 39.5 °F 30.23 in West 1.7 mph 2 mph 99% 0.00 in 0 W/m2
00:19 39.7 °F 39.4 °F 30.23 in West 1.5 mph 2 mph 99% 0.00 in 0 W/m2
00:24 39.6 °F 39.3 °F 30.23 in WNW 1.4 mph 2 mph 99% 0.00 in 0 W/m2
00:29 39.7 °F 39.4 °F 30.24 in WNW 2.2 mph 2 mph 99% 0.00 in 0 W/m2
00:34 39.7 °F 39.5 °F 30.23 in WNW 2.4 mph 2 mph 99% 0.00 in 0 W/m2
00:39 39.8 °F 39.6 °F 30.23 in West 2.2 mph 2 mph 99% 0.00 in 0 W/m2
00:44 40 °F 39.7 °F 30.23 in West 1.9 mph 2 mph 99% 0.00 in 0 W/m2
00:49 40.1 °F 39.8 °F 30.23 in WNW 2.2 mph 2 mph 99% 0.00 in 0 W/m2
00:54 40.2 °F 39.9 °F 30.23 in NW 1.7 mph 2 mph 99% 0.00 in 0 W/m2
00:59 40.4 °F 40.1 °F 30.23 in NW 0.5 mph 2 mph 99% 0.00 in 0 W/m2
01:04 40.6 °F 40.3 °F 30.24 in Calm   1 mph 99% 0.00 in 0 W/m2
01:09 40.7 °F 40.5 °F 30.24 in WNW 0.5 mph 0.7 mph 99% 0.00 in 0 W/m2
01:14 40.8 °F 40.6 °F 30.24 in NW 0.3 mph 2 mph 99% 0.00 in 0 W/m2
01:19 41.1 °F 40.8 °F 30.24 in Calm     99% 0.00 in 0 W/m2
01:24 41.2 °F 40.9 °F 30.24 in NNW 0.6 mph   99% 0.00 in 0 W/m2
01:29 41.3 °F 41 °F 30.24 in NE 1 mph 1 mph 99% 0.00 in 0 W/m2
01:34 41.4 °F 41.1 °F 30.24 in ENE 1.1 mph 1 mph 99% 0.00 in 0 W/m2
01:39 41.5 °F 41.3 °F 30.24 in NNE 0.7 mph 1 mph 99% 0.00 in 0 W/m2
01:44 41.5 °F 41.3 °F 30.24 in North 0.8 mph 2 mph 99% 0.00 in 0 W/m2
01:49 41.7 °F 41.5 °F 30.24 in North 0.4 mph 1 mph 99% 0.00 in 0 W/m2
01:54 41.7 °F 41.5 °F 30.24 in NNW 0.8 mph 2 mph 99% 0.00 in 0 W/m2
01:59 41.8 °F 41.5 °F 30.24 in NW 0.9 mph 2 mph 99% 0.00 in 0 W/m2
02:04 41.9 °F 41.6 °F 30.23 in NW 0.4 mph 1 mph 99% 0.00 in 0 W/m2
02:09 42.1 °F 41.8 °F 30.23 in NNE 0.2 mph 2 mph 99% 0.00 in 0 W/m2
02:14 42.2 °F 41.9 °F 30.23 in NNW 0.6 mph 1 mph 99% 0.00 in 0 W/m2
02:19 42.3 °F 42 °F 30.23 in West 0.2 mph 1 mph 99% 0.00 in 0 W/m2
02:24 42.3 °F 42 °F 30.23 in WNW 1 mph 1 mph 99% 0.00 in 0 W/m2
02:29 42.5 °F 42.3 °F 30.23 in West 0.2 mph 2 mph 99% 0.00 in 0 W/m2
02:34 42.6 °F 42.4 °F 30.23 in SE 0.6 mph   99% 0.00 in 0 W/m2
Knjazevac, Serbia
Compliments of Weather Underground - 2 mb